Time;durP1;ratioP1;P1;durP2;ratioP2;P2;SDS_P1;SDS_P2;PMS_P1;PMS_P2;Temp;Humidity;BMP_temperature;BMP_pressure;BME280_temperature;BME280_humidity;BME280_pressure;Samples;Min_cycle;Max_cycle;Signal;HPM_P1;HPM_P2
2021/08/25 00:02:18;;;;;;;;;8.25;7.00;;;;;18.83;45.34;101971.88;4939773;28;44935;-94
2021/08/25 00:04:46;;;;;;;;;6.00;6.00;;;;;18.80;45.37;101966.78;4939998;28;45322;-95
2021/08/25 00:07:12;;;;;;;;;7.75;7.00;;;;;18.77;45.25;101964.28;4939671;28;45609;-93
2021/08/25 00:09:40;;;;;;;;;7.00;5.33;;;;;18.73;44.98;101965.38;4939462;28;47677;-94
2021/08/25 00:12:07;;;;;;;;;9.33;8.67;;;;;18.73;45.29;101966.25;4939336;28;45260;-94
2021/08/25 00:14:36;;;;;;;;;6.67;6.67;;;;;18.68;44.92;101957.72;4938867;28;45272;-94
2021/08/25 00:17:02;;;;;;;;;6.67;6.67;;;;;18.70;45.08;101958.47;4939217;28;45426;-94
2021/08/25 00:19:27;;;;;;;;;6.50;6.00;;;;;18.67;45.11;101956.88;4939197;28;47461;-95
2021/08/25 00:21:54;;;;;;;;;6.00;5.00;;;;;18.64;44.93;101951.75;4939189;28;45860;-94
2021/08/25 00:24:20;;;;;;;;;6.00;5.00;;;;;18.67;44.95;101953.38;4939649;28;45413;-93
2021/08/25 00:26:46;;;;;;;;;7.00;7.00;;;;;18.61;45.40;101946.63;4941706;28;45172;-94
2021/08/25 00:29:15;;;;;;;;;6.00;6.00;;;;;18.58;44.97;101944.16;4959612;28;45515;-94
2021/08/25 00:31:41;;;;;;;;;6.25;6.25;;;;;18.58;45.26;101941.50;4959055;28;45331;-95
2021/08/25 00:34:07;;;;;;;;;6.25;5.50;;;;;18.55;45.35;101941.66;4959007;28;45474;-94
2021/08/25 00:36:33;;;;;;;;;8.25;6.00;;;;;18.51;45.94;101948.88;4952536;28;44923;-95
2021/08/25 00:38:58;;;;;;;;;7.25;6.25;;;;;18.49;45.64;101941.97;4939238;28;47615;-94
2021/08/25 00:41:24;;;;;;;;;6.00;6.00;;;;;18.45;45.47;101930.72;4939073;28;45336;-94
2021/08/25 00:43:50;;;;;;;;;5.50;5.50;;;;;18.44;45.54;101936.94;4939468;28;45467;-94
2021/08/25 00:46:16;;;;;;;;;6.33;5.00;;;;;18.38;45.76;101938.09;4939872;28;45429;-95
2021/08/25 00:48:47;;;;;;;;;5.67;5.00;;;;;18.36;45.74;101934.69;4938590;28;47299;-94
2021/08/25 00:51:13;;;;;;;;;7.33;6.33;;;;;18.36;46.12;101942.59;4938959;28;45470;-95
2021/08/25 00:53:39;;;;;;;;;7.67;5.67;;;;;18.36;45.84;101928.56;4938093;28;45315;-94
2021/08/25 00:56:06;;;;;;;;;7.33;6.00;;;;;18.30;45.94;101924.47;4939274;28;45502;-94
2021/08/25 00:58:38;;;;;;;;;6.33;5.00;;;;;18.29;45.78;101931.50;4938459;28;47344;-94
2021/08/25 01:01:08;;;;;;;;;5.00;5.00;;;;;18.21;46.21;101928.41;4938701;28;45511;-94
2021/08/25 01:03:49;;;;;;;;;5.67;4.33;;;;;18.16;45.97;101927.78;4938548;28;45324;-96
2021/08/25 01:06:20;;;;;;;;;6.33;5.67;;;;;18.14;46.23;101927.84;4939875;28;44927;-95
2021/08/25 01:08:47;;;;;;;;;4.33;4.33;;;;;18.19;45.87;101929.41;4938579;28;47167;-95
2021/08/25 01:11:13;;;;;;;;;9.33;6.00;;;;;18.18;46.43;101925.06;4938857;28;45394;-94
2021/08/25 01:13:41;;;;;;;;;5.33;3.67;;;;;18.19;46.08;101924.97;4939215;28;45389;-95
2021/08/25 01:16:07;;;;;;;;;5.33;3.33;;;;;18.17;46.10;101913.69;4939342;28;45352;-94
2021/08/25 01:18:33;;;;;;;;;6.00;5.00;;;;;18.19;46.03;101921.50;4938803;28;47281;-94
2021/08/25 01:21:04;;;;;;;;;6.00;6.00;;;;;18.14;46.54;101914.69;4939037;28;45454;-94
2021/08/25 01:23:38;;;;;;;;;5.75;5.75;;;;;18.15;46.20;101919.00;4938619;28;44842;-94
2021/08/25 01:26:03;;;;;;;;;6.00;5.00;;;;;18.14;46.37;101922.59;4939064;28;45714;-93
2021/08/25 01:28:36;;;;;;;;;5.00;5.00;;;;;18.14;46.14;101913.81;4938362;28;46998;-95
2021/08/25 01:31:02;;;;;;;;;4.75;4.75;;;;;18.08;46.73;101903.59;4941575;28;45696;-95
2021/08/25 01:33:29;;;;;;;;;5.00;5.00;;;;;18.09;46.61;101913.22;4938639;28;44712;-94
2021/08/25 01:35:55;;;;;;;;;6.00;4.00;;;;;18.06;46.55;101915.97;4938839;28;45577;-96
2021/08/25 01:38:23;;;;;;;;;4.00;4.00;;;;;18.06;46.57;101915.97;4938679;28;47209;-93
2021/08/25 01:40:49;;;;;;;;;6.25;4.50;;;;;18.02;46.59;101912.63;4938368;28;45378;-94
2021/08/25 01:43:14;;;;;;;;;4.75;4.75;;;;;17.99;46.92;101908.34;4938968;28;45403;-95
2021/08/25 01:45:40;;;;;;;;;6.67;5.33;;;;;18.00;46.77;101914.47;4938938;28;45618;-95
2021/08/25 01:48:05;;;;;;;;;5.50;5.00;;;;;17.96;46.85;101907.66;4938440;28;47671;-94
2021/08/25 01:50:31;;;;;;;;;5.00;5.00;;;;;17.98;46.83;101917.19;4938191;28;45332;-95
2021/08/25 01:52:56;;;;;;;;;6.25;4.50;;;;;17.97;47.09;101914.63;4940303;28;45488;-94
2021/08/25 01:55:22;;;;;;;;;6.50;5.75;;;;;17.91;47.08;101907.84;4941445;28;45312;-94
2021/08/25 01:57:47;;;;;;;;;4.75;4.75;;;;;17.94;47.21;101909.50;4941127;28;47324;-94
2021/08/25 02:00:14;;;;;;;;;4.67;4.00;;;;;17.94;46.97;101896.31;4941749;28;45307;-95
2021/08/25 02:02:39;;;;;;;;;4.67;4.67;;;;;17.94;47.18;101898.97;4941630;28;45394;-95
2021/08/25 02:05:05;;;;;;;;;4.00;4.00;;;;;17.94;47.14;101901.59;4942124;28;45489;-94
2021/08/25 02:07:33;;;;;;;;;6.67;4.00;;;;;17.90;47.00;101904.41;4941326;28;46634;-93
2021/08/25 02:09:59;;;;;;;;;7.25;5.50;;;;;17.88;47.33;101900.97;4940873;28;44827;-94
2021/08/25 02:12:24;;;;;;;;;6.00;5.00;;;;;17.87;47.37;101896.63;4941309;28;45225;-94
2021/08/25 02:14:50;;;;;;;;;5.75;5.75;;;;;17.82;47.45;101896.00;4941855;28;45232;-94
2021/08/25 02:17:15;;;;;;;;;5.00;5.00;;;;;17.83;47.43;101899.50;4941485;28;47234;-95
2021/08/25 02:19:41;;;;;;;;;4.00;3.33;;;;;17.81;47.63;101891.66;4941360;28;45797;-94
2021/08/25 02:22:06;;;;;;;;;8.00;5.25;;;;;17.78;47.83;101889.19;4941736;28;45391;-94
2021/08/25 02:24:31;;;;;;;;;5.50;5.50;;;;;17.72;47.48;101894.72;4941453;28;45859;-94
2021/08/25 02:26:59;;;;;;;;;5.25;5.25;;;;;17.73;47.91;101894.66;4941198;28;46688;-94
2021/08/25 02:29:25;;;;;;;;;6.50;6.00;;;;;17.72;48.02;101892.97;4941194;28;45447;-94
2021/08/25 02:31:50;;;;;;;;;6.00;4.75;;;;;17.72;47.88;101892.09;4941191;28;45323;-93
2021/08/25 02:34:15;;;;;;;;;3.67;3.67;;;;;17.71;47.70;101896.53;4941225;28;45506;-92
2021/08/25 02:36:43;;;;;;;;;4.00;4.00;;;;;17.69;47.85;101887.84;4956913;28;47075;-95
2021/08/25 02:39:09;;;;;;;;;7.25;6.00;;;;;17.68;48.20;101896.66;4941294;28;45323;-94
2021/08/25 02:41:35;;;;;;;;;5.00;5.00;;;;;17.65;47.60;101886.28;4940823;28;45347;-94
2021/08/25 02:44:00;;;;;;;;;6.75;6.00;;;;;17.61;48.26;101887.34;4940655;28;45391;-95
2021/08/25 02:46:26;;;;;;;;;6.00;4.75;;;;;17.60;48.41;101891.75;4956758;28;47910;-94
2021/08/25 02:48:51;;;;;;;;;5.50;5.00;;;;;17.58;48.17;101885.72;4940856;28;45852;-94
2021/08/25 02:51:17;;;;;;;;;5.25;5.25;;;;;17.59;47.87;101894.50;4941027;28;45633;-94
2021/08/25 02:53:42;;;;;;;;;8.25;8.00;;;;;17.57;48.74;101889.28;4941424;28;45267;-95
2021/08/25 02:56:07;;;;;;;;;6.25;5.75;;;;;17.55;48.30;101887.66;4940413;28;46978;-93
2021/08/25 02:58:33;;;;;;;;;8.25;6.25;;;;;17.52;48.41;101886.03;4956863;28;45381;-95
2021/08/25 03:01:04;;;;;;;;;6.25;6.00;;;;;17.54;49.02;101886.78;4940978;28;45456;-95
2021/08/25 03:03:29;;;;;;;;;5.50;5.50;;;;;17.51;48.46;101889.59;4941924;28;45385;-94
2021/08/25 03:05:55;;;;;;;;;6.00;4.75;;;;;17.48;48.74;101889.72;4939969;28;46527;-94
2021/08/25 03:08:20;;;;;;;;;6.00;5.00;;;;;17.45;48.31;101881.97;4940721;28;45533;-95
2021/08/25 03:10:46;;;;;;;;;8.00;5.00;;;;;17.44;48.73;101878.47;4957007;28;45243;-93
2021/08/25 03:13:12;;;;;;;;;7.50;5.50;;;;;17.43;48.96;101873.28;4941029;28;45366;-95
2021/08/25 03:15:37;;;;;;;;;6.00;6.00;;;;;17.44;48.72;101878.47;4940655;28;47085;-94
2021/08/25 03:18:03;;;;;;;;;5.33;5.00;;;;;17.42;49.01;101877.72;4956951;28;45455;-94
2021/08/25 03:20:29;;;;;;;;;6.25;5.50;;;;;17.41;49.10;101870.72;4940973;28;44796;-94
2021/08/25 03:22:54;;;;;;;;;5.67;4.00;;;;;17.37;48.81;101874.44;4940888;28;45498;-94
2021/08/25 03:25:20;;;;;;;;;6.00;6.00;;;;;17.37;49.15;101882.34;4940693;28;47102;-93
2021/08/25 03:27:45;;;;;;;;;5.00;4.00;;;;;17.35;48.76;101879.78;4940249;28;45408;-94
2021/08/25 03:30:11;;;;;;;;;5.00;5.00;;;;;17.34;49.01;101877.22;4940264;28;44666;-95
2021/08/25 03:32:36;;;;;;;;;6.33;5.67;;;;;17.32;49.23;101873.81;4940382;28;45313;-94
2021/08/25 03:35:02;;;;;;;;;6.00;6.00;;;;;17.30;49.53;101875.63;4939844;28;47544;-93
2021/08/25 03:37:28;;;;;;;;;7.00;5.75;;;;;17.27;49.28;101878.41;4939243;28;44884;-93
2021/08/25 03:39:53;;;;;;;;;5.75;5.75;;;;;17.28;49.32;101872.22;4939879;28;45303;-94
2021/08/25 03:42:18;;;;;;;;;4.50;4.00;;;;;17.27;49.55;101873.16;4940645;28;45264;-95
2021/08/25 03:44:44;;;;;;;;;7.00;4.67;;;;;17.26;49.45;101874.09;4939716;28;47560;-94
2021/08/25 03:47:09;;;;;;;;;6.75;5.75;;;;;17.21;49.55;101864.63;4939945;28;45750;-94
2021/08/25 03:49:36;;;;;;;;;7.00;5.50;;;;;17.20;49.44;101872.59;4940194;28;45470;-94
2021/08/25 03:52:03;;;;;;;;;7.00;5.00;;;;;17.21;49.37;101874.28;4940300;28;45567;-95
2021/08/25 03:54:29;;;;;;;;;6.00;6.00;;;;;17.17;49.59;101872.75;4940039;28;47217;-93
2021/08/25 03:56:55;;;;;;;;;6.75;5.50;;;;;17.13;50.05;101872.00;4939842;28;45721;-94
2021/08/25 03:59:21;;;;;;;;;7.25;6.00;;;;;17.13;49.59;101874.63;4940334;28;45376;-94
2021/08/25 04:01:49;;;;;;;;;6.00;5.75;;;;;17.13;49.76;101868.53;4940175;28;45303;-95
2021/08/25 04:04:15;;;;;;;;;6.25;6.25;;;;;17.11;49.82;101868.59;4940027;28;47760;-93
2021/08/25 04:06:40;;;;;;;;;8.75;7.25;;;;;17.09;50.03;101866.03;4939653;28;45482;-94
2021/08/25 04:09:06;;;;;;;;;7.00;7.00;;;;;17.07;49.77;101870.53;4940024;28;45344;-95
2021/08/25 04:11:32;;;;;;;;;8.00;6.50;;;;;17.06;50.28;101865.31;4939740;28;45252;-94
2021/08/25 04:13:59;;;;;;;;;5.00;5.00;;;;;17.04;49.98;101861.91;4939046;28;47554;-94
2021/08/25 04:16:24;;;;;;;;;6.00;5.00;;;;;17.04;50.06;101864.56;4939227;28;45154;-93
2021/08/25 04:18:49;;;;;;;;;5.75;5.50;;;;;17.00;50.16;101860.31;4939690;28;45340;-95
2021/08/25 04:21:15;;;;;;;;;6.25;6.25;;;;;16.98;50.30;101859.53;4939846;28;45339;-94
2021/08/25 04:23:41;;;;;;;;;4.50;4.50;;;;;16.98;50.28;101864.81;4939401;28;47330;-94
2021/08/25 04:26:09;;;;;;;;;5.25;5.25;;;;;16.96;50.48;101867.50;4939585;28;45237;-95
2021/08/25 04:28:35;;;;;;;;;9.00;7.25;;;;;16.96;50.30;101868.31;4955353;28;45311;-94
2021/08/25 04:31:00;;;;;;;;;8.50;6.00;;;;;16.93;50.15;101867.63;4955417;28;45607;-94
2021/08/25 04:33:26;;;;;;;;;6.50;6.50;;;;;16.89;50.44;101861.66;4939483;28;48397;-94
2021/08/25 04:35:51;;;;;;;;;8.50;6.00;;;;;16.92;50.48;101868.53;4939463;28;45694;-94
2021/08/25 04:38:17;;;;;;;;;8.00;7.00;;;;;16.92;50.47;101873.81;4939684;28;44930;-94
2021/08/25 04:40:45;;;;;;;;;7.75;5.25;;;;;16.90;50.54;101863.34;4939730;28;45419;-94
2021/08/25 04:43:10;;;;;;;;;8.25;7.25;;;;;16.87;50.75;101862.63;4938799;28;47146;-94
2021/08/25 04:45:39;;;;;;;;;7.00;6.25;;;;;16.85;50.63;101859.25;4938943;28;45229;-93
2021/08/25 04:48:05;;;;;;;;;7.50;4.00;;;;;16.83;50.47;101862.78;4955601;28;45468;-94
2021/08/25 04:50:31;;;;;;;;;7.00;7.00;;;;;16.85;50.58;101869.75;4939407;28;45580;-95
2021/08/25 04:52:57;;;;;;;;;5.50;5.25;;;;;16.79;50.61;101869.09;4939034;28;47177;-95
2021/08/25 04:55:22;;;;;;;;;5.75;4.50;;;;;16.79;50.63;101869.09;4938999;28;45420;-94
2021/08/25 04:57:48;;;;;;;;;5.00;5.00;;;;;16.77;50.87;101870.97;4939232;28;45467;-94
2021/08/25 05:00:14;;;;;;;;;8.00;6.33;;;;;16.78;50.76;101861.28;4939561;28;45361;-94
2021/08/25 05:02:39;;;;;;;;;6.67;6.00;;;;;16.75;50.73;101864.91;4938688;28;46730;-94
2021/08/25 05:05:08;;;;;;;;;7.00;6.00;;;;;16.74;50.79;101863.19;4938679;28;45423;-94
2021/08/25 05:07:33;;;;;;;;;6.67;6.67;;;;;16.77;50.79;101864.84;4937873;28;45190;-93
2021/08/25 05:09:59;;;;;;;;;9.50;5.75;;;;;16.76;51.06;101863.13;4939789;28;45497;-93
2021/08/25 05:12:24;;;;;;;;;9.33;6.33;;;;;16.70;51.21;101859.84;4938202;28;47077;-94
2021/08/25 05:14:50;;;;;;;;;7.00;6.67;;;;;16.71;51.06;101865.94;4938521;28;45225;-94
2021/08/25 05:17:15;;;;;;;;;6.75;6.75;;;;;16.66;50.78;101860.91;4938763;28;45325;-94
2021/08/25 05:19:41;;;;;;;;;7.50;6.25;;;;;16.64;51.08;101854.88;4939083;28;44818;-94
2021/08/25 05:22:06;;;;;;;;;7.50;5.50;;;;;16.63;51.14;101855.78;4938425;28;47402;-94
2021/08/25 05:24:33;;;;;;;;;8.00;6.50;;;;;16.64;50.92;101857.50;4938448;28;45778;-94
2021/08/25 05:26:59;;;;;;;;;7.50;6.50;;;;;16.60;51.33;101860.31;4941438;28;45268;-94
2021/08/25 05:29:25;;;;;;;;;7.00;6.50;;;;;16.60;50.85;101863.78;4942340;28;45527;-94
2021/08/25 05:31:50;;;;;;;;;8.25;7.00;;;;;16.56;51.30;101860.44;4941527;28;47155;-93
2021/08/25 05:34:16;;;;;;;;;5.75;5.75;;;;;16.59;51.22;101866.47;4941984;28;44778;-93
2021/08/25 05:36:41;;;;;;;;;10.00;7.00;;;;;16.54;51.56;101861.44;4941991;28;45387;-94
2021/08/25 05:39:33;;;;;;;;;7.75;7.25;;;;;16.56;51.54;101875.34;4942122;28;44880;-94
2021/08/25 05:41:58;;;;;;;;;11.00;6.00;;;;;16.50;51.60;101865.97;4941216;28;47837;-94
2021/08/25 05:44:24;;;;;;;;;8.00;7.75;;;;;16.52;51.61;101874.63;4941906;28;45351;-93
2021/08/25 05:46:49;;;;;;;;;6.50;6.50;;;;;16.48;51.66;101869.59;4943258;28;45351;-93
2021/08/25 05:49:17;;;;;;;;;7.25;7.25;;;;;16.50;51.62;101873.00;4942636;28;44798;-95
2021/08/25 05:51:42;;;;;;;;;10.00;8.75;;;;;16.48;51.78;101866.97;4941640;28;46753;-94
2021/08/25 05:54:09;;;;;;;;;9.25;7.75;;;;;16.46;51.70;101874.91;4941289;28;45371;-93
2021/08/25 05:56:36;;;;;;;;;7.75;7.75;;;;;16.47;51.83;101873.16;4941342;28;46847;-93
2021/08/25 05:59:02;;;;;;;;;10.25;6.75;;;;;16.45;51.89;101867.94;4941938;28;45394;-94
2021/08/25 06:01:27;;;;;;;;;9.25;8.00;;;;;16.50;52.23;101887.00;4941748;28;46170;-93
2021/08/25 06:03:53;;;;;;;;;7.00;6.00;;;;;16.52;51.73;101884.31;4941788;28;44703;-93
2021/08/25 06:06:18;;;;;;;;;8.00;7.00;;;;;16.53;51.95;101891.28;4941360;28;45331;-94
2021/08/25 06:08:44;;;;;;;;;11.25;8.00;;;;;16.55;51.93;101886.78;4941685;28;45405;-93
2021/08/25 06:11:12;;;;;;;;;9.00;7.75;;;;;16.51;52.20;101885.22;4941389;28;46798;-94
2021/08/25 06:13:38;;;;;;;;;9.00;7.50;;;;;16.54;52.06;101878.03;4941376;28;45396;-94
2021/08/25 06:16:04;;;;;;;;;11.50;7.00;;;;;16.56;51.99;101891.13;4941267;28;45394;-94
2021/08/25 06:18:29;;;;;;;;;8.50;7.75;;;;;16.55;52.15;101892.03;4941670;28;45300;-93
2021/08/25 06:20:55;;;;;;;;;8.00;7.75;;;;;16.61;52.14;101896.19;4941374;28;47673;-94
2021/08/25 06:23:21;;;;;;;;;8.25;8.25;;;;;16.62;52.15;101887.38;4941379;28;45350;-94
2021/08/25 06:25:46;;;;;;;;;9.75;8.25;;;;;16.64;52.13;101888.16;4941008;28;45478;-94
2021/08/25 06:28:11;;;;;;;;;8.25;7.50;;;;;16.67;52.00;101895.94;4941389;28;44885;-94
2021/08/25 06:30:37;;;;;;;;;8.75;7.25;;;;;16.72;52.17;101890.47;4940134;28;46576;-94
2021/08/25 06:33:03;;;;;;;;;7.50;7.00;;;;;16.72;51.92;101887.84;4940174;28;45547;-94
2021/08/25 06:35:28;;;;;;;;;5.75;5.75;;;;;16.77;51.97;101885.84;4941040;28;45428;-95
2021/08/25 06:37:54;;;;;;;;;7.50;7.50;;;;;16.77;52.03;101867.47;4941023;28;45034;-94
2021/08/25 06:40:19;;;;;;;;;7.00;7.00;;;;;16.78;52.35;101875.28;4941023;28;46821;-94
2021/08/25 06:42:45;;;;;;;;;8.00;8.00;;;;;16.82;51.98;101873.38;4940143;28;46348;-94
2021/08/25 06:45:11;;;;;;;;;8.25;6.50;;;;;16.89;52.01;101881.84;4940966;28;45233;-93
2021/08/25 06:47:37;;;;;;;;;7.50;6.00;;;;;16.93;51.93;101886.03;4941613;28;45666;-94
2021/08/25 06:50:04;;;;;;;;;7.00;7.00;;;;;16.94;52.05;101883.34;4940797;28;46979;-95
2021/08/25 06:52:29;;;;;;;;;8.50;7.50;;;;;17.03;51.84;101895.25;4941046;28;46021;-94
2021/08/25 06:54:55;;;;;;;;;5.50;5.50;;;;;17.03;51.94;101881.25;4940440;28;44719;-94
2021/08/25 06:57:20;;;;;;;;;6.50;6.50;;;;;17.03;52.07;101879.47;4940729;28;45454;-94
2021/08/25 06:59:46;;;;;;;;;7.25;7.25;;;;;17.08;52.11;101888.00;4940483;28;47203;-94
2021/08/25 07:02:11;;;;;;;;;7.75;7.00;;;;;17.11;51.65;101894.91;4940592;28;45263;-93
2021/08/25 07:04:46;;;;;;;;;;;;;;;;;;;;;
2021/08/25 07:07:13;;;;;;;;;7.00;6.75;;;;;17.09;51.90;101897.59;4940526;28;64415;-94
2021/08/25 07:09:39;;;;;;;;;7.50;7.50;;;;;17.12;52.08;101898.41;4940299;28;47314;-93
2021/08/25 07:12:05;;;;;;;;;6.75;6.50;;;;;17.12;52.22;101903.66;4940384;28;45453;-94
2021/08/25 07:14:33;;;;;;;;;6.25;6.25;;;;;17.18;52.10;101898.13;4940395;28;44758;-95
2021/08/25 07:17:00;;;;;;;;;6.50;6.50;;;;;17.23;51.85;101899.59;4940296;28;45593;-93
2021/08/25 07:19:25;;;;;;;;;10.00;6.00;;;;;17.31;51.66;101898.41;4940230;28;47341;-95
2021/08/25 07:21:50;;;;;;;;;6.00;6.00;;;;;17.35;52.07;101889.44;4940326;28;45343;-93
2021/08/25 07:24:16;;;;;;;;;5.67;5.67;;;;;17.40;51.81;101883.97;4940295;28;44727;-93
2021/08/25 07:26:42;;;;;;;;;7.00;6.67;;;;;17.48;51.84;101887.09;4940256;28;45407;-94
2021/08/25 07:29:07;;;;;;;;;4.67;4.67;;;;;17.53;51.79;101887.72;4939934;28;47954;-94
2021/08/25 07:31:32;;;;;;;;;8.50;7.00;;;;;17.58;51.69;101880.47;4939903;28;45442;-93
2021/08/25 07:33:59;;;;;;;;;7.25;6.00;;;;;17.62;51.44;101878.53;4940375;28;45487;-93
2021/08/25 07:36:25;;;;;;;;;7.33;7.00;;;;;17.68;51.85;101883.50;4940092;28;45447;-94
2021/08/25 07:38:50;;;;;;;;;5.25;5.25;;;;;17.73;51.65;101870.97;4939859;28;47269;-95
2021/08/25 07:41:16;;;;;;;;;7.50;6.00;;;;;17.75;51.60;101877.03;4940246;28;45075;-94
2021/08/25 07:43:41;;;;;;;;;7.00;7.00;;;;;17.83;51.21;101878.44;4940085;28;45325;-94
2021/08/25 07:46:07;;;;;;;;;7.67;6.00;;;;;17.91;51.81;101878.91;4940251;28;45276;-93
2021/08/25 07:48:33;;;;;;;;;8.67;7.00;;;;;17.93;51.66;101881.47;4939333;28;47635;-94
2021/08/25 07:50:58;;;;;;;;;8.67;7.33;;;;;17.97;51.14;101878.59;4938865;28;45999;-94
2021/08/25 07:53:24;;;;;;;;;6.25;6.25;;;;;18.03;51.12;101880.09;4940187;28;45536;-93
2021/08/25 07:55:49;;;;;;;;;9.75;7.00;;;;;18.06;51.38;101873.81;4940170;28;45173;-93
2021/08/25 07:58:15;;;;;;;;;8.00;7.25;;;;;18.12;51.09;101877.03;4939503;28;46678;-94
2021/08/25 08:00:40;;;;;;;;;7.25;7.25;;;;;18.16;51.03;101870.66;4939816;28;45063;-95
2021/08/25 08:03:08;;;;;;;;;10.25;7.25;;;;;18.25;50.94;101872.00;4940239;28;45450;-95
2021/08/25 08:05:34;;;;;;;;;6.50;5.25;;;;;18.32;50.72;101862.00;4940024;28;45609;-94
2021/08/25 08:08:00;;;;;;;;;7.25;7.25;;;;;18.40;50.66;101856.31;4939038;28;47159;-93
2021/08/25 08:10:25;;;;;;;;;9.25;7.75;;;;;18.49;50.84;101861.13;4939630;28;45400;-94
2021/08/25 08:12:53;;;;;;;;;6.25;6.25;;;;;18.52;50.46;101853.06;4939801;28;45317;-94
2021/08/25 08:15:18;;;;;;;;;7.50;7.25;;;;;18.60;50.59;101857.09;4939987;28;45359;-92
2021/08/25 08:17:46;;;;;;;;;7.25;6.00;;;;;18.66;50.31;101859.41;4938923;28;47669;-94
2021/08/25 08:20:14;;;;;;;;;7.00;7.00;;;;;18.76;50.67;101860.63;4939436;28;45000;-95
2021/08/25 08:22:42;;;;;;;;;8.00;8.00;;;;;18.86;50.23;101866.25;4939570;28;45396;-95
2021/08/25 08:25:07;;;;;;;;;5.25;5.25;;;;;18.94;50.71;101866.69;4939754;28;44878;-94
2021/08/25 08:27:36;;;;;;;;;7.25;6.25;;;;;19.04;50.15;101856.53;4939050;28;48333;-94
2021/08/25 08:30:02;;;;;;;;;6.67;5.67;;;;;19.18;50.56;101860.19;4938779;28;45489;-94
2021/08/25 08:32:28;;;;;;;;;9.00;8.00;;;;;19.26;50.23;101867.69;4971935;28;44740;-95
2021/08/25 08:34:53;;;;;;;;;7.00;6.00;;;;;19.33;50.23;101847.94;4939653;28;45494;-94
2021/08/25 08:37:18;;;;;;;;;10.33;6.67;;;;;19.44;49.92;101850.81;4939311;28;46662;-93
2021/08/25 08:39:44;;;;;;;;;7.33;7.00;;;;;19.57;50.07;101845.72;4938630;28;45134;-94
2021/08/25 08:42:26;;;;;;;;;8.33;8.00;;;;;19.67;49.63;101842.56;4938899;28;45402;-93
2021/08/25 08:44:52;;;;;;;;;11.00;8.33;;;;;19.76;49.40;101850.78;4942806;28;45414;-94
2021/08/25 08:47:21;;;;;;;;;6.67;6.67;;;;;19.89;49.80;101848.31;4945473;28;47572;-94
2021/08/25 08:49:47;;;;;;;;;8.67;7.33;;;;;20.01;49.00;101853.84;4939252;28;45408;-94
2021/08/25 08:52:13;;;;;;;;;7.33;6.67;;;;;20.10;48.93;101844.53;4939165;28;44740;-93
2021/08/25 08:54:38;;;;;;;;;5.00;5.00;;;;;20.20;48.98;101843.03;4939360;28;45304;-94
2021/08/25 08:57:04;;;;;;;;;7.00;7.00;;;;;20.29;49.04;101839.00;4938733;28;47282;-94
2021/08/25 08:59:30;;;;;;;;;10.00;7.33;;;;;20.41;48.53;101846.19;4938953;28;45277;-95
2021/08/25 09:01:55;;;;;;;;;10.00;8.00;;;;;20.55;48.89;101855.91;4954427;28;45412;-94
2021/08/25 09:04:32;;;;;;;;;8.50;8.50;;;;;20.66;48.36;101852.63;4939131;28;44915;-94
2021/08/25 09:06:57;;;;;;;;;7.67;5.67;;;;;20.78;48.52;101850.19;4938918;28;47380;-94
2021/08/25 09:09:23;;;;;;;;;7.50;6.75;;;;;20.88;48.24;101853.94;4938870;28;44861;-94
2021/08/25 09:11:55;;;;;;;;;10.67;9.33;;;;;21.03;47.68;101852.16;4939012;28;45384;-95
2021/08/25 09:14:32;;;;;;;;;7.33;6.67;;;;;21.17;47.25;101840.69;4939021;28;45489;-95
2021/08/25 09:17:03;;;;;;;;;9.00;9.00;;;;;21.29;47.32;101839.06;4909381;28;47249;-93
2021/08/25 09:19:35;;;;;;;;;9.75;9.75;;;;;21.42;47.39;101835.63;4938113;28;45311;-95
2021/08/25 09:22:00;;;;;;;;;9.50;8.00;;;;;21.56;46.60;101832.91;4938618;28;45349;-94
2021/08/25 09:24:46;;;;;;;;;6.33;6.33;;;;;21.68;46.59;101828.63;4939004;28;45194;-95
2021/08/25 09:27:15;;;;;;;;;6.00;6.00;;;;;21.83;47.13;101836.50;4938368;28;47579;-94
2021/08/25 09:29:44;;;;;;;;;8.67;7.33;;;;;21.98;46.12;101839.97;4938272;28;45610;-94
2021/08/25 09:32:20;;;;;;;;;8.33;7.67;;;;;22.10;45.19;101822.34;4937841;28;45304;-94
2021/08/25 09:34:59;;;;;;;;;9.33;7.00;;;;;22.27;45.30;101829.16;4935655;28;45518;-94
2021/08/25 09:37:29;;;;;;;;;10.00;8.67;;;;;22.40;45.27;101832.66;4938336;28;47594;-92
2021/08/25 09:39:57;;;;;;;;;7.67;6.00;;;;;22.54;45.42;101826.44;4937936;28;46105;-92
2021/08/25 09:42:24;;;;;;;;;7.00;7.00;;;;;22.68;44.51;101825.44;4938376;28;45299;-91
2021/08/25 09:45:02;;;;;;;;;7.33;6.33;;;;;22.82;44.66;101821.00;4940873;28;45239;-94
2021/08/25 09:47:51;;;;;;;;;6.33;6.33;;;;;22.98;43.90;101820.72;4949110;28;47967;-94
2021/08/25 09:50:20;;;;;;;;;10.00;9.00;;;;;23.08;43.87;101811.16;4937731;28;45526;-95
2021/08/25 09:52:46;;;;;;;;;8.00;8.00;;;;;23.23;43.05;101817.13;4938510;28;45506;-95
2021/08/25 09:55:15;;;;;;;;;5.33;5.33;;;;;23.31;43.45;101816.59;4938021;28;45989;-94
2021/08/25 09:57:45;;;;;;;;;8.00;7.00;;;;;23.44;43.27;101813.91;4937876;28;48039;-93
2021/08/25 10:00:12;;;;;;;;;8.67;7.00;;;;;23.55;42.86;101799.81;4937646;28;46934;-94
2021/08/25 10:03:04;;;;;;;;;8.33;6.00;;;;;23.68;42.67;101809.50;4938012;28;45470;-95
2021/08/25 10:05:30;;;;;;;;;6.67;6.00;;;;;23.81;41.61;101799.66;4937419;28;45739;-94
2021/08/25 10:08:08;;;;;;;;;;;;;;;;;;;;;
2021/08/25 10:10:57;;;;;;;;;6.00;5.67;;;;;24.08;41.30;101803.00;4937576;28;72324;-94
2021/08/25 10:13:27;;;;;;;;;6.67;6.67;;;;;24.19;40.79;101796.84;4939635;28;45589;-94
2021/08/25 10:15:53;;;;;;;;;5.67;5.67;;;;;24.34;41.11;101808.94;4941560;28;44891;-91
2021/08/25 10:18:30;;;;;;;;;5.00;4.33;;;;;24.46;40.63;101795.66;4937694;28;46683;-91
2021/08/25 10:20:59;;;;;;;;;5.00;5.00;;;;;24.59;40.64;101799.06;4945834;28;47538;-90
2021/08/25 10:23:56;;;;;;;;;6.33;6.33;;;;;24.77;39.97;101795.88;4960492;28;44674;-91
2021/08/25 10:26:25;;;;;;;;;8.33;8.00;;;;;24.94;40.67;101797.19;4960094;28;45382;-91
2021/08/25 10:29:05;;;;;;;;;6.33;6.33;;;;;25.14;39.85;101794.75;4958562;28;47609;-94
2021/08/25 10:31:48;;;;;;;;;7.67;7.67;;;;;25.34;39.72;101793.09;4959588;28;44969;-94
2021/08/25 10:34:15;;;;;;;;;6.00;6.00;;;;;25.54;39.13;101794.13;4959770;28;46740;-95
2021/08/25 10:36:40;;;;;;;;;6.67;6.00;;;;;25.80;39.31;101792.91;4960361;28;45516;-95
2021/08/25 10:39:35;;;;;;;;;8.67;6.33;;;;;26.11;38.88;101788.44;4959768;28;46884;-96
2021/08/25 10:42:01;;;;;;;;;7.00;6.67;;;;;26.45;38.60;101784.72;4960189;28;45300;-94
2021/08/25 10:44:49;;;;;;;;;5.00;5.00;;;;;26.80;38.03;101786.06;4976773;28;45571;-94
2021/08/25 10:47:16;;;;;;;;;7.00;6.00;;;;;27.20;38.27;101780.81;4958557;28;45557;-94
2021/08/25 10:49:47;;;;;;;;;8.33;7.00;;;;;27.58;37.47;101784.47;4958310;28;47855;-94
2021/08/25 10:52:15;;;;;;;;;6.33;5.00;;;;;27.96;36.68;101778.38;4961879;28;45218;-92
2021/08/25 10:54:41;;;;;;;;;5.33;4.00;;;;;28.31;36.52;101786.72;4977901;28;45673;-93
2021/08/25 10:57:08;;;;;;;;;6.00;5.67;;;;;28.52;35.41;101781.94;4977774;28;45559;-92
2021/08/25 10:59:33;;;;;;;;;5.00;4.00;;;;;28.83;35.23;101782.63;4977601;28;46767;-93
2021/08/25 11:02:00;;;;;;;;;6.00;6.00;;;;;29.07;34.73;101779.41;4977377;28;45630;-94
2021/08/25 11:04:26;;;;;;;;;4.67;4.67;;;;;29.31;32.86;101773.41;4977836;28;45519;-93
2021/08/25 11:07:10;;;;;;;;;5.00;4.00;;;;;29.58;32.76;101768.94;4977869;28;45473;-92
2021/08/25 11:09:43;;;;;;;;;7.00;6.00;;;;;29.90;33.44;101760.44;4977432;28;47377;-94
2021/08/25 11:12:23;;;;;;;;;4.33;4.33;;;;;30.12;31.53;101759.06;4977079;28;45831;-92
2021/08/25 11:14:51;;;;;;;;;4.33;4.33;;;;;30.40;33.10;101756.16;4976620;28;45417;-93
2021/08/25 11:17:30;;;;;;;;;4.00;4.00;;;;;30.77;32.71;101754.09;4977201;28;45518;-90
2021/08/25 11:19:58;;;;;;;;;6.33;6.33;;;;;31.15;32.33;101753.66;4976819;28;46923;-93
2021/08/25 11:22:32;;;;;;;;;5.33;5.33;;;;;31.57;32.54;101758.00;4977318;28;45520;-92
2021/08/25 11:25:03;;;;;;;;;5.67;5.67;;;;;31.90;30.74;101753.59;4976594;28;44944;-93
2021/08/25 11:27:37;;;;;;;;;5.00;5.00;;;;;32.19;29.65;101752.13;4982652;28;45579;-93
2021/08/25 11:30:08;;;;;;;;;5.33;5.33;;;;;32.36;29.82;101747.50;4976751;28;47075;-93